sensor_id;sensor_type;location;lat;lon;timestamp;pressure;altitude;pressure_sealevel;temperature;humidity
9746;BME280;4912;50.836;12.958;2023-06-14T00:00:22;97712.13;;;16.19;62.73
9746;BME280;4912;50.836;12.958;2023-06-14T00:02:53;97708.81;;;16.10;63.01
9746;BME280;4912;50.836;12.958;2023-06-14T00:05:28;97704.47;;;16.09;62.98
9746;BME280;4912;50.836;12.958;2023-06-14T00:08:00;97699.16;;;16.11;63.22
9746;BME280;4912;50.836;12.958;2023-06-14T00:10:34;97699.94;;;16.11;62.97
9746;BME280;4912;50.836;12.958;2023-06-14T00:13:06;97697.63;;;16.04;62.89
9746;BME280;4912;50.836;12.958;2023-06-14T00:15:37;97699.16;;;16.11;63.43
9746;BME280;4912;50.836;12.958;2023-06-14T00:18:09;97694.63;;;16.08;62.75
9746;BME280;4912;50.836;12.958;2023-06-14T00:20:42;97697.13;;;16.06;63.32
9746;BME280;4912;50.836;12.958;2023-06-14T00:23:13;97702.97;;;16.02;63.60
9746;BME280;4912;50.836;12.958;2023-06-14T00:25:44;97704.47;;;15.97;63.28
9746;BME280;4912;50.836;12.958;2023-06-14T00:28:15;97702.72;;;15.94;63.22
9746;BME280;4912;50.836;12.958;2023-06-14T00:30:45;97707.03;;;15.95;63.53
9746;BME280;4912;50.836;12.958;2023-06-14T00:33:16;97705.25;;;15.98;63.61
9746;BME280;4912;50.836;12.958;2023-06-14T00:35:49;97708.31;;;16.00;63.78
9746;BME280;4912;50.836;12.958;2023-06-14T00:38:21;97704.75;;;16.00;64.02
9746;BME280;4912;50.836;12.958;2023-06-14T00:40:51;97704.25;;;15.95;64.12
9746;BME280;4912;50.836;12.958;2023-06-14T00:43:22;97700.16;;;15.96;64.19
9746;BME280;4912;50.836;12.958;2023-06-14T00:45:53;97700.44;;;15.98;64.00
9746;BME280;4912;50.836;12.958;2023-06-14T00:48:24;97705.75;;;15.96;64.08
9746;BME280;4912;50.836;12.958;2023-06-14T00:50:58;97702.97;;;15.96;64.37
9746;BME280;4912;50.836;12.958;2023-06-14T00:53:31;97692.56;;;15.91;64.78
9746;BME280;4912;50.836;12.958;2023-06-14T00:56:04;97695.59;;;15.93;64.96
9746;BME280;4912;50.836;12.958;2023-06-14T00:58:34;97703.47;;;15.89;65.09
9746;BME280;4912;50.836;12.958;2023-06-14T01:01:05;97698.91;;;15.86;64.94
9746;BME280;4912;50.836;12.958;2023-06-14T01:03:35;97699.94;;;15.83;64.67
9746;BME280;4912;50.836;12.958;2023-06-14T01:06:18;97700.16;;;15.85;64.88
9746;BME280;4912;50.836;12.958;2023-06-14T01:09:03;97692.56;;;15.80;65.23
9746;BME280;4912;50.836;12.958;2023-06-14T01:11:45;97698.41;;;15.77;65.65
9746;BME280;4912;50.836;12.958;2023-06-14T01:14:20;97698.91;;;15.75;65.53
9746;BME280;4912;50.836;12.958;2023-06-14T01:16:52;97700.16;;;15.74;65.16
9746;BME280;4912;50.836;12.958;2023-06-14T01:19:24;97694.81;;;15.65;65.18
9746;BME280;4912;50.836;12.958;2023-06-14T01:22:00;97697.84;;;15.62;65.38
9746;BME280;4912;50.836;12.958;2023-06-14T01:24:34;97694.81;;;15.60;66.30
9746;BME280;4912;50.836;12.958;2023-06-14T01:27:07;97703.94;;;15.60;66.65
9746;BME280;4912;50.836;12.958;2023-06-14T01:29:38;97690.25;;;15.56;65.57
9746;BME280;4912;50.836;12.958;2023-06-14T01:32:15;97701.34;;;15.51;65.39
9746;BME280;4912;50.836;12.958;2023-06-14T01:34:45;97693.47;;;15.44;65.35
9746;BME280;4912;50.836;12.958;2023-06-14T01:37:17;97695.75;;;15.40;64.99
9746;BME280;4912;50.836;12.958;2023-06-14T01:39:51;97691.69;;;15.35;66.18
9746;BME280;4912;50.836;12.958;2023-06-14T01:42:22;97688.13;;;15.35;66.66
9746;BME280;4912;50.836;12.958;2023-06-14T01:44:55;97689.41;;;15.34;66.05
9746;BME280;4912;50.836;12.958;2023-06-14T01:47:30;97691.69;;;15.30;66.12
9746;BME280;4912;50.836;12.958;2023-06-14T01:50:01;97689.13;;;15.26;66.30
9746;BME280;4912;50.836;12.958;2023-06-14T01:52:32;97690.91;;;15.24;66.89
9746;BME280;4912;50.836;12.958;2023-06-14T01:55:06;97683.03;;;15.22;66.21
9746;BME280;4912;50.836;12.958;2023-06-14T01:57:38;97688.09;;;15.18;66.69
9746;BME280;4912;50.836;12.958;2023-06-14T02:00:11;97686.56;;;15.11;67.37
9746;BME280;4912;50.836;12.958;2023-06-14T02:02:43;97694.63;;;15.09;67.49
9746;BME280;4912;50.836;12.958;2023-06-14T02:05:14;97691.06;;;15.03;67.41
9746;BME280;4912;50.836;12.958;2023-06-14T02:07:46;97687.03;;;15.04;66.86
9746;BME280;4912;50.836;12.958;2023-06-14T02:10:20;97690.56;;;14.99;66.64
9746;BME280;4912;50.836;12.958;2023-06-14T02:12:51;97696.88;;;14.94;66.63
9746;BME280;4912;50.836;12.958;2023-06-14T02:15:22;97693.75;;;14.81;66.71
9746;BME280;4912;50.836;12.958;2023-06-14T02:18:01;97702.13;;;14.81;67.90
9746;BME280;4912;50.836;12.958;2023-06-14T02:20:33;97699.06;;;14.79;67.45
9746;BME280;4912;50.836;12.958;2023-06-14T02:23:04;97697.53;;;14.72;67.47
9746;BME280;4912;50.836;12.958;2023-06-14T02:25:37;97701.56;;;14.66;67.71
9746;BME280;4912;50.836;12.958;2023-06-14T02:28:10;97696.22;;;14.68;67.62
9746;BME280;4912;50.836;12.958;2023-06-14T02:30:43;97701.78;;;14.68;67.73
9746;BME280;4912;50.836;12.958;2023-06-14T02:33:14;97699.56;;;14.72;69.11
9746;BME280;4912;50.836;12.958;2023-06-14T02:35:44;97708.44;;;14.76;68.51
9746;BME280;4912;50.836;12.958;2023-06-14T02:38:15;97704.91;;;14.81;69.17
9746;BME280;4912;50.836;12.958;2023-06-14T02:40:50;97711.03;;;14.96;67.48
9746;BME280;4912;50.836;12.958;2023-06-14T02:43:20;97711.53;;;14.89;67.99
9746;BME280;4912;50.836;12.958;2023-06-14T02:45:51;97714.81;;;14.88;68.35
9746;BME280;4912;50.836;12.958;2023-06-14T02:48:22;97713.53;;;14.83;68.43
9746;BME280;4912;50.836;12.958;2023-06-14T02:50:53;97712.50;;;14.81;67.82
9746;BME280;4912;50.836;12.958;2023-06-14T02:53:23;97712.47;;;14.75;68.49
9746;BME280;4912;50.836;12.958;2023-06-14T02:55:57;97716.78;;;14.76;68.71
9746;BME280;4912;50.836;12.958;2023-06-14T02:58:28;97712.72;;;14.71;67.47
9746;BME280;4912;50.836;12.958;2023-06-14T03:01:00;97720.53;;;14.67;67.32
9746;BME280;4912;50.836;12.958;2023-06-14T03:03:33;97716.69;;;14.59;68.06
9746;BME280;4912;50.836;12.958;2023-06-14T03:06:04;97716.38;;;14.52;68.67
9746;BME280;4912;50.836;12.958;2023-06-14T03:08:37;97716.88;;;14.50;68.70
9746;BME280;4912;50.836;12.958;2023-06-14T03:11:16;97724.47;;;14.50;68.86
9746;BME280;4912;50.836;12.958;2023-06-14T03:13:48;97720.66;;;14.47;69.19
9746;BME280;4912;50.836;12.958;2023-06-14T03:16:19;97720.63;;;14.42;69.16
9746;BME280;4912;50.836;12.958;2023-06-14T03:18:52;97720.06;;;14.38;70.12
9746;BME280;4912;50.836;12.958;2023-06-14T03:21:25;97721.13;;;14.40;69.55
9746;BME280;4912;50.836;12.958;2023-06-14T03:23:58;97726.97;;;14.42;69.75
9746;BME280;4912;50.836;12.958;2023-06-14T03:26:34;97725.91;;;14.40;70.88
9746;BME280;4912;50.836;12.958;2023-06-14T03:29:05;97730.22;;;14.41;70.63
9746;BME280;4912;50.836;12.958;2023-06-14T03:31:40;97739.84;;;14.40;71.11
9746;BME280;4912;50.836;12.958;2023-06-14T03:34:34;97742.34;;;14.38;70.85
9746;BME280;4912;50.836;12.958;2023-06-14T03:37:06;97736.03;;;14.37;70.87
9746;BME280;4912;50.836;12.958;2023-06-14T03:39:37;97748.19;;;14.40;71.18
9746;BME280;4912;50.836;12.958;2023-06-14T03:42:20;97741.84;;;14.39;71.12
9746;BME280;4912;50.836;12.958;2023-06-14T03:44:51;97747.91;;;14.38;71.09
9746;BME280;4912;50.836;12.958;2023-06-14T03:47:23;97750.41;;;14.35;71.16
9746;BME280;4912;50.836;12.958;2023-06-14T03:49:55;97757.03;;;14.38;71.19
9746;BME280;4912;50.836;12.958;2023-06-14T03:52:26;97752.22;;;14.39;70.14
9746;BME280;4912;50.836;12.958;2023-06-14T03:54:57;97758.06;;;14.41;70.29
9746;BME280;4912;50.836;12.958;2023-06-14T03:57:34;97749.44;;;14.39;70.05
9746;BME280;4912;50.836;12.958;2023-06-14T04:00:10;97762.00;;;14.28;69.83
9746;BME280;4912;50.836;12.958;2023-06-14T04:02:43;97766.03;;;14.27;70.28
9746;BME280;4912;50.836;12.958;2023-06-14T04:05:14;97763.72;;;14.26;70.47
9746;BME280;4912;50.836;12.958;2023-06-14T04:07:50;97770.84;;;14.27;70.34
9746;BME280;4912;50.836;12.958;2023-06-14T04:10:23;97767.03;;;14.24;70.36
9746;BME280;4912;50.836;12.958;2023-06-14T04:12:56;97768.28;;;14.23;70.85
9746;BME280;4912;50.836;12.958;2023-06-14T04:15:26;97773.84;;;14.23;70.60
9746;BME280;4912;50.836;12.958;2023-06-14T04:17:58;97778.38;;;14.21;70.86
9746;BME280;4912;50.836;12.958;2023-06-14T04:20:29;97782.63;;;14.16;70.76
9746;BME280;4912;50.836;12.958;2023-06-14T04:23:10;97780.28;;;14.09;71.31
9746;BME280;4912;50.836;12.958;2023-06-14T04:25:42;97784.28;;;14.03;71.54
9746;BME280;4912;50.836;12.958;2023-06-14T04:28:15;97783.03;;;14.04;71.60
9746;BME280;4912;50.836;12.958;2023-06-14T04:30:47;97783.50;;;14.02;71.67
9746;BME280;4912;50.836;12.958;2023-06-14T04:33:19;97784.88;;;14.12;72.71
9746;BME280;4912;50.836;12.958;2023-06-14T04:35:49;97781.88;;;14.16;72.30
9746;BME280;4912;50.836;12.958;2023-06-14T04:38:21;97783.72;;;14.24;72.66
9746;BME280;4912;50.836;12.958;2023-06-14T04:40:55;97792.16;;;14.35;72.92
9746;BME280;4912;50.836;12.958;2023-06-14T04:43:32;97783.88;;;14.41;71.78
9746;BME280;4912;50.836;12.958;2023-06-14T04:46:06;97785.72;;;14.50;71.38
9746;BME280;4912;50.836;12.958;2023-06-14T04:48:40;97793.63;;;14.57;72.08
9746;BME280;4912;50.836;12.958;2023-06-14T04:51:12;97792.88;;;14.62;72.46
9746;BME280;4912;50.836;12.958;2023-06-14T04:53:43;97789.66;;;14.69;71.85
9746;BME280;4912;50.836;12.958;2023-06-14T04:56:13;97797.25;;;14.68;70.88
9746;BME280;4912;50.836;12.958;2023-06-14T04:58:47;97792.75;;;14.77;70.41
9746;BME280;4912;50.836;12.958;2023-06-14T05:01:18;97794.06;;;14.87;69.86
9746;BME280;4912;50.836;12.958;2023-06-14T05:03:50;97798.16;;;14.91;70.57
9746;BME280;4912;50.836;12.958;2023-06-14T05:06:21;97795.16;;;14.95;70.67
9746;BME280;4912;50.836;12.958;2023-06-14T05:08:52;97814.94;;;15.02;69.73
9746;BME280;4912;50.836;12.958;2023-06-14T05:11:23;97806.34;;;15.06;69.69
9746;BME280;4912;50.836;12.958;2023-06-14T05:13:57;97803.88;;;15.13;69.51
9746;BME280;4912;50.836;12.958;2023-06-14T05:16:28;97806.91;;;15.15;68.96
9746;BME280;4912;50.836;12.958;2023-06-14T05:18:59;97808.47;;;15.22;68.60
9746;BME280;4912;50.836;12.958;2023-06-14T05:21:30;97803.16;;;15.24;68.50
9746;BME280;4912;50.836;12.958;2023-06-14T05:24:09;97809.97;;;15.18;68.33
9746;BME280;4912;50.836;12.958;2023-06-14T05:26:39;97811.19;;;15.11;68.17
9746;BME280;4912;50.836;12.958;2023-06-14T05:29:13;97810.44;;;15.10;68.30
9746;BME280;4912;50.836;12.958;2023-06-14T05:31:43;97818.06;;;15.15;68.63
9746;BME280;4912;50.836;12.958;2023-06-14T05:34:13;97815.25;;;15.15;68.39
9746;BME280;4912;50.836;12.958;2023-06-14T05:36:43;97818.59;;;15.20;68.57
9746;BME280;4912;50.836;12.958;2023-06-14T05:39:14;97820.16;;;15.32;69.18
9746;BME280;4912;50.836;12.958;2023-06-14T05:41:45;97821.25;;;15.45;68.41
9746;BME280;4912;50.836;12.958;2023-06-14T05:44:19;97827.16;;;15.53;68.01
9746;BME280;4912;50.836;12.958;2023-06-14T05:46:50;97832.50;;;15.62;68.47
9746;BME280;4912;50.836;12.958;2023-06-14T05:49:20;97831.81;;;15.78;68.29
9746;BME280;4912;50.836;12.958;2023-06-14T05:51:51;97828.00;;;15.81;66.93
9746;BME280;4912;50.836;12.958;2023-06-14T05:54:21;97826.75;;;15.82;67.38
9746;BME280;4912;50.836;12.958;2023-06-14T05:56:53;97827.75;;;15.90;66.93
9746;BME280;4912;50.836;12.958;2023-06-14T05:59:31;97832.88;;;16.03;67.15
9746;BME280;4912;50.836;12.958;2023-06-14T06:02:01;97834.41;;;16.15;66.46
9746;BME280;4912;50.836;12.958;2023-06-14T06:04:32;97835.72;;;16.31;67.15
9746;BME280;4912;50.836;12.958;2023-06-14T06:07:03;97841.06;;;16.46;66.66
9746;BME280;4912;50.836;12.958;2023-06-14T06:09:34;97842.34;;;16.61;66.26
9746;BME280;4912;50.836;12.958;2023-06-14T06:12:07;97836.03;;;16.72;65.92
9746;BME280;4912;50.836;12.958;2023-06-14T06:14:40;97842.34;;;16.95;66.13
9746;BME280;4912;50.836;12.958;2023-06-14T06:17:10;97839.53;;;17.11;66.06
9746;BME280;4912;50.836;12.958;2023-06-14T06:19:41;97837.72;;;17.25;65.13
9746;BME280;4912;50.836;12.958;2023-06-14T06:22:12;97837.91;;;17.38;65.17
9746;BME280;4912;50.836;12.958;2023-06-14T06:24:42;97830.03;;;17.42;64.67
9746;BME280;4912;50.836;12.958;2023-06-14T06:27:14;97842.72;;;17.54;63.50
9746;BME280;4912;50.836;12.958;2023-06-14T06:29:48;97847.25;;;17.69;64.34
9746;BME280;4912;50.836;12.958;2023-06-14T06:32:19;97843.91;;;17.81;63.65
9746;BME280;4912;50.836;12.958;2023-06-14T06:34:50;97847.84;;;18.02;63.70
9746;BME280;4912;50.836;12.958;2023-06-14T06:37:20;97850.31;;;18.17;62.74
9746;BME280;4912;50.836;12.958;2023-06-14T06:39:51;97848.50;;;18.25;62.88
9746;BME280;4912;50.836;12.958;2023-06-14T06:42:21;97845.34;;;18.40;63.21
9746;BME280;4912;50.836;12.958;2023-06-14T06:44:55;97851.09;;;18.53;62.80
9746;BME280;4912;50.836;12.958;2023-06-14T06:47:26;97851.03;;;18.64;63.05
9746;BME280;4912;50.836;12.958;2023-06-14T06:49:56;97852.72;;;18.78;63.14
9746;BME280;4912;50.836;12.958;2023-06-14T06:52:27;97854.66;;;18.89;61.92
9746;BME280;4912;50.836;12.958;2023-06-14T06:54:57;97853.28;;;19.01;61.42
9746;BME280;4912;50.836;12.958;2023-06-14T06:57:29;97849.59;;;19.12;60.76
9746;BME280;4912;50.836;12.958;2023-06-14T07:00:03;97844.28;;;19.33;60.75
9746;BME280;4912;50.836;12.958;2023-06-14T07:02:37;97848.84;;;19.36;58.96
9746;BME280;4912;50.836;12.958;2023-06-14T07:05:08;97846.66;;;19.53;59.76
9746;BME280;4912;50.836;12.958;2023-06-14T07:07:38;97851.00;;;19.73;60.30
9746;BME280;4912;50.836;12.958;2023-06-14T07:10:09;97854.19;;;19.82;59.36
9746;BME280;4912;50.836;12.958;2023-06-14T07:12:39;97858.06;;;19.98;58.97
9746;BME280;4912;50.836;12.958;2023-06-14T07:15:13;97855.59;;;20.13;58.81
9746;BME280;4912;50.836;12.958;2023-06-14T07:17:44;97865.53;;;20.33;58.02
9746;BME280;4912;50.836;12.958;2023-06-14T07:20:14;97865.59;;;20.46;56.61
9746;BME280;4912;50.836;12.958;2023-06-14T07:22:45;97858.75;;;20.60;56.19
9746;BME280;4912;50.836;12.958;2023-06-14T07:25:16;97861.38;;;20.71;54.99
9746;BME280;4912;50.836;12.958;2023-06-14T07:27:47;97864.25;;;20.84;55.22
9746;BME280;4912;50.836;12.958;2023-06-14T07:30:20;97863.44;;;21.03;53.73
9746;BME280;4912;50.836;12.958;2023-06-14T07:32:53;97869.31;;;21.18;53.79
9746;BME280;4912;50.836;12.958;2023-06-14T07:35:24;97877.34;;;21.40;55.36
9746;BME280;4912;50.836;12.958;2023-06-14T07:37:54;97875.31;;;21.54;53.34
9746;BME280;4912;50.836;12.958;2023-06-14T07:40:25;97864.72;;;21.73;53.07
9746;BME280;4912;50.836;12.958;2023-06-14T07:42:55;97868.47;;;21.89;52.18
9746;BME280;4912;50.836;12.958;2023-06-14T07:45:29;97871.94;;;22.08;52.68
9746;BME280;4912;50.836;12.958;2023-06-14T07:47:59;97864.84;;;22.28;52.72
9746;BME280;4912;50.836;12.958;2023-06-14T07:50:30;97876.44;;;22.37;49.67
9746;BME280;4912;50.836;12.958;2023-06-14T07:53:00;97879.53;;;22.47;49.02
9746;BME280;4912;50.836;12.958;2023-06-14T07:55:31;97878.38;;;22.63;48.18
9746;BME280;4912;50.836;12.958;2023-06-14T07:58:19;97876.75;;;22.68;47.66
9746;BME280;4912;50.836;12.958;2023-06-14T08:00:52;97878.97;;;22.82;48.21
9746;BME280;4912;50.836;12.958;2023-06-14T08:03:22;97875.97;;;23.01;47.29
9746;BME280;4912;50.836;12.958;2023-06-14T08:05:54;97876.69;;;23.22;49.08
9746;BME280;4912;50.836;12.958;2023-06-14T08:08:24;97876.41;;;23.34;46.46
9746;BME280;4912;50.836;12.958;2023-06-14T08:10:57;97878.41;;;23.25;47.70
9746;BME280;4912;50.836;12.958;2023-06-14T08:13:29;97865.88;;;23.62;47.62
9746;BME280;4912;50.836;12.958;2023-06-14T08:16:01;97869.03;;;23.87;47.17
9746;BME280;4912;50.836;12.958;2023-06-14T08:18:32;97879.25;;;23.90;44.56
9746;BME280;4912;50.836;12.958;2023-06-14T08:21:03;97867.84;;;24.11;44.50
9746;BME280;4912;50.836;12.958;2023-06-14T08:23:34;97863.22;;;24.29;43.74
9746;BME280;4912;50.836;12.958;2023-06-14T08:26:06;97858.75;;;24.48;41.56
9746;BME280;4912;50.836;12.958;2023-06-14T08:28:36;97864.09;;;24.67;44.11
9746;BME280;4912;50.836;12.958;2023-06-14T08:31:09;97871.44;;;24.70;40.50
9746;BME280;4912;50.836;12.958;2023-06-14T08:33:40;97866.41;;;25.07;42.14
9746;BME280;4912;50.836;12.958;2023-06-14T08:36:11;97866.03;;;25.25;39.20
9746;BME280;4912;50.836;12.958;2023-06-14T08:38:42;97859.25;;;25.21;35.80
9746;BME280;4912;50.836;12.958;2023-06-14T08:41:20;97859.59;;;25.17;36.09
9746;BME280;4912;50.836;12.958;2023-06-14T08:43:54;97863.56;;;25.37;35.37
9746;BME280;4912;50.836;12.958;2023-06-14T08:46:32;97854.59;;;25.86;37.25
9746;BME280;4912;50.836;12.958;2023-06-14T08:49:04;97863.00;;;26.24;36.12
9746;BME280;4912;50.836;12.958;2023-06-14T08:51:35;97858.50;;;26.54;33.26
9746;BME280;4912;50.836;12.958;2023-06-14T08:54:08;97872.25;;;26.65;33.31
9746;BME280;4912;50.836;12.958;2023-06-14T08:56:40;97865.06;;;27.21;34.31
9746;BME280;4912;50.836;12.958;2023-06-14T08:59:11;97868.91;;;27.75;33.64
9746;BME280;4912;50.836;12.958;2023-06-14T09:01:45;97874.47;;;28.25;33.69
9746;BME280;4912;50.836;12.958;2023-06-14T09:04:33;97870.72;;;28.49;31.84
9746;BME280;4912;50.836;12.958;2023-06-14T09:07:05;97869.78;;;28.90;31.45
9746;BME280;4912;50.836;12.958;2023-06-14T09:09:39;97874.78;;;27.94;31.77
9746;BME280;4912;50.836;12.958;2023-06-14T09:12:30;97880.88;;;28.42;32.49
9746;BME280;4912;50.836;12.958;2023-06-14T09:15:01;97887.66;;;28.13;31.75
9746;BME280;4912;50.836;12.958;2023-06-14T09:17:36;97879.41;;;27.90;32.23
9746;BME280;4912;50.836;12.958;2023-06-14T09:20:08;97878.19;;;27.58;32.13
9746;BME280;4912;50.836;12.958;2023-06-14T09:22:41;97881.00;;;27.16;32.47
9746;BME280;4912;50.836;12.958;2023-06-14T09:25:12;97884.31;;;28.41;33.21
9746;BME280;4912;50.836;12.958;2023-06-14T09:28:06;97878.91;;;29.16;31.28
9746;BME280;4912;50.836;12.958;2023-06-14T09:30:38;97873.44;;;29.47;30.89
9746;BME280;4912;50.836;12.958;2023-06-14T09:33:16;97881.81;;;28.10;32.69
9746;BME280;4912;50.836;12.958;2023-06-14T09:35:51;97877.38;;;28.78;31.06
9746;BME280;4912;50.836;12.958;2023-06-14T09:38:22;97876.91;;;29.55;30.99
9746;BME280;4912;50.836;12.958;2023-06-14T09:40:57;97878.50;;;30.04;29.91
9746;BME280;4912;50.836;12.958;2023-06-14T09:43:28;97870.97;;;30.37;29.50
9746;BME280;4912;50.836;12.958;2023-06-14T09:46:01;97878.38;;;29.00;30.95
9746;BME280;4912;50.836;12.958;2023-06-14T09:48:35;97875.34;;;28.71;30.89
9746;BME280;4912;50.836;12.958;2023-06-14T09:51:13;97871.09;;;29.82;30.55
9746;BME280;4912;50.836;12.958;2023-06-14T09:53:47;97875.34;;;30.48;29.37
9746;BME280;4912;50.836;12.958;2023-06-14T09:56:23;97877.78;;;30.92;28.26
9746;BME280;4912;50.836;12.958;2023-06-14T09:58:58;97874.19;;;31.22;27.87
9746;BME280;4912;50.836;12.958;2023-06-14T10:01:36;97874.81;;;30.71;27.94
9746;BME280;4912;50.836;12.958;2023-06-14T10:04:16;97873.50;;;31.12;28.00
9746;BME280;4912;50.836;12.958;2023-06-14T10:06:50;97876.50;;;29.87;29.22
9746;BME280;4912;50.836;12.958;2023-06-14T10:09:22;97890.22;;;28.97;32.41
9746;BME280;4912;50.836;12.958;2023-06-14T10:11:55;97884.91;;;28.66;30.57
9746;BME280;4912;50.836;12.958;2023-06-14T10:14:26;97879.81;;;28.03;31.55
9746;BME280;4912;50.836;12.958;2023-06-14T10:17:03;97891.69;;;28.71;32.71
9746;BME280;4912;50.836;12.958;2023-06-14T10:19:44;97871.38;;;29.76;30.15
9746;BME280;4912;50.836;12.958;2023-06-14T10:22:24;97887.94;;;30.45;29.30
9746;BME280;4912;50.836;12.958;2023-06-14T10:24:59;97876.72;;;30.87;28.50
9746;BME280;4912;50.836;12.958;2023-06-14T10:27:30;97883.91;;;31.08;28.32
9746;BME280;4912;50.836;12.958;2023-06-14T10:30:07;97893.00;;;29.60;28.77
9746;BME280;4912;50.836;12.958;2023-06-14T10:33:05;97888.03;;;28.87;29.75
9746;BME280;4912;50.836;12.958;2023-06-14T10:35:40;97875.31;;;29.90;29.56
9746;BME280;4912;50.836;12.958;2023-06-14T10:38:12;97885.75;;;29.03;29.79
9746;BME280;4912;50.836;12.958;2023-06-14T10:40:44;97887.56;;;29.08;29.61
9746;BME280;4912;50.836;12.958;2023-06-14T10:43:23;97880.72;;;29.86;28.68
9746;BME280;4912;50.836;12.958;2023-06-14T10:46:15;97886.41;;;30.63;29.06
9746;BME280;4912;50.836;12.958;2023-06-14T10:48:57;97876.53;;;31.36;27.69
9746;BME280;4912;50.836;12.958;2023-06-14T10:51:38;97870.75;;;31.76;26.17
9746;BME280;4912;50.836;12.958;2023-06-14T10:54:13;97867.91;;;31.97;26.51
9746;BME280;4912;50.836;12.958;2023-06-14T10:56:46;97874.53;;;30.67;26.95
9746;BME280;4912;50.836;12.958;2023-06-14T10:59:18;97876.81;;;30.59;27.39
9746;BME280;4912;50.836;12.958;2023-06-14T11:02:02;97862.09;;;31.64;25.99
9746;BME280;4912;50.836;12.958;2023-06-14T11:04:56;97860.47;;;32.37;26.09
9746;BME280;4912;50.836;12.958;2023-06-14T11:07:41;97862.97;;;32.75;nan
9746;BME280;4912;50.836;12.958;2023-06-14T11:10:26;97848.06;;;33.23;25.37
9746;BME280;4912;50.836;12.958;2023-06-14T11:13:06;97855.91;;;33.69;24.82
9746;BME280;4912;50.836;12.958;2023-06-14T11:15:38;97852.00;;;33.65;23.59
9746;BME280;4912;50.836;12.958;2023-06-14T11:18:14;97855.06;;;32.64;25.21
9746;BME280;4912;50.836;12.958;2023-06-14T11:20:46;97860.88;;;32.43;25.45
9746;BME280;4912;50.836;12.958;2023-06-14T11:23:21;97858.50;;;32.84;24.70
9746;BME280;4912;50.836;12.958;2023-06-14T11:25:52;97861.00;;;33.13;22.97
9746;BME280;4912;50.836;12.958;2023-06-14T11:28:35;97847.06;;;33.30;24.15
9746;BME280;4912;50.836;12.958;2023-06-14T11:31:07;97842.50;;;34.11;22.84
9746;BME280;4912;50.836;12.958;2023-06-14T11:33:39;97850.31;;;33.37;23.79
9746;BME280;4912;50.836;12.958;2023-06-14T11:36:10;97849.09;;;32.16;24.92
9746;BME280;4912;50.836;12.958;2023-06-14T11:38:43;97851.19;;;31.51;25.17
9746;BME280;4912;50.836;12.958;2023-06-14T11:41:13;97847.00;;;32.28;24.56
9746;BME280;4912;50.836;12.958;2023-06-14T11:43:44;97833.91;;;34.11;24.08
9746;BME280;4912;50.836;12.958;2023-06-14T11:46:15;97831.72;;;35.26;21.88
9746;BME280;4912;50.836;12.958;2023-06-14T11:48:51;97830.94;;;34.09;22.24
9746;BME280;4912;50.836;12.958;2023-06-14T11:51:22;97835.06;;;33.11;23.87
9746;BME280;4912;50.836;12.958;2023-06-14T11:53:55;97840.06;;;33.57;23.10
9746;BME280;4912;50.836;12.958;2023-06-14T11:56:26;97835.91;;;34.20;21.18
9746;BME280;4912;50.836;12.958;2023-06-14T11:58:57;97836.53;;;35.22;21.59
9746;BME280;4912;50.836;12.958;2023-06-14T12:01:30;97838.66;;;34.82;21.53
9746;BME280;4912;50.836;12.958;2023-06-14T12:04:01;97829.34;;;33.22;22.12
9746;BME280;4912;50.836;12.958;2023-06-14T12:06:33;97835.91;;;32.67;23.72
9746;BME280;4912;50.836;12.958;2023-06-14T12:09:10;97836.66;;;32.67;22.48
9746;BME280;4912;50.836;12.958;2023-06-14T12:11:45;97837.97;;;32.55;21.74
9746;BME280;4912;50.836;12.958;2023-06-14T12:14:16;97826.56;;;31.15;23.12
9746;BME280;4912;50.836;12.958;2023-06-14T12:16:49;97833.19;;;31.82;23.45
9746;BME280;4912;50.836;12.958;2023-06-14T12:19:26;97829.47;;;32.33;22.53
9746;BME280;4912;50.836;12.958;2023-06-14T12:21:59;97833.06;;;32.90;24.00
9746;BME280;4912;50.836;12.958;2023-06-14T12:24:34;97828.28;;;33.76;22.35
9746;BME280;4912;50.836;12.958;2023-06-14T12:27:06;97825.31;;;35.14;22.21
9746;BME280;4912;50.836;12.958;2023-06-14T12:29:38;97833.44;;;36.02;20.90
9746;BME280;4912;50.836;12.958;2023-06-14T12:32:11;97826.03;;;36.71;20.70
9746;BME280;4912;50.836;12.958;2023-06-14T12:34:42;97825.31;;;37.34;20.28
9746;BME280;4912;50.836;12.958;2023-06-14T12:37:12;97831.44;;;36.95;20.40
9746;BME280;4912;50.836;12.958;2023-06-14T12:39:45;97826.00;;;37.65;19.37
9746;BME280;4912;50.836;12.958;2023-06-14T12:42:18;97819.53;;;38.00;19.20
9746;BME280;4912;50.836;12.958;2023-06-14T12:44:48;97827.66;;;37.21;20.20
9746;BME280;4912;50.836;12.958;2023-06-14T12:47:19;97827.03;;;36.62;21.84
9746;BME280;4912;50.836;12.958;2023-06-14T12:49:49;97832.78;;;35.33;22.25
9746;BME280;4912;50.836;12.958;2023-06-14T12:52:20;97826.94;;;34.39;22.40
9746;BME280;4912;50.836;12.958;2023-06-14T12:54:53;97833.75;;;35.38;22.39
9746;BME280;4912;50.836;12.958;2023-06-14T12:57:24;97835.63;;;34.67;23.34
9746;BME280;4912;50.836;12.958;2023-06-14T12:59:54;97836.03;;;33.74;23.47
9746;BME280;4912;50.836;12.958;2023-06-14T13:02:25;97834.94;;;33.55;23.36
9746;BME280;4912;50.836;12.958;2023-06-14T13:04:56;97828.81;;;33.72;24.36
9746;BME280;4912;50.836;12.958;2023-06-14T13:07:27;97840.06;;;33.45;24.01
9746;BME280;4912;50.836;12.958;2023-06-14T13:10:01;97843.91;;;32.68;25.34
9746;BME280;4912;50.836;12.958;2023-06-14T13:12:32;97839.38;;;34.19;23.33
9746;BME280;4912;50.836;12.958;2023-06-14T13:15:02;97841.66;;;33.71;23.46
9746;BME280;4912;50.836;12.958;2023-06-14T13:17:34;97827.84;;;33.10;24.02
9746;BME280;4912;50.836;12.958;2023-06-14T13:20:06;97836.97;;;32.38;25.00
9746;BME280;4912;50.836;12.958;2023-06-14T13:22:38;97839.94;;;31.44;25.79
9746;BME280;4912;50.836;12.958;2023-06-14T13:25:11;97840.59;;;30.61;26.18
9746;BME280;4912;50.836;12.958;2023-06-14T13:27:42;97849.81;;;29.92;27.23
9746;BME280;4912;50.836;12.958;2023-06-14T13:30:12;97852.72;;;29.37;27.58
9746;BME280;4912;50.836;12.958;2023-06-14T13:32:43;97854.97;;;29.02;29.46
9746;BME280;4912;50.836;12.958;2023-06-14T13:35:17;97843.50;;;28.82;30.65
9746;BME280;4912;50.836;12.958;2023-06-14T13:37:47;97839.69;;;30.59;28.24
9746;BME280;4912;50.836;12.958;2023-06-14T13:40:21;97843.28;;;30.59;28.96